Time;durP1;ratioP1;P1;durP2;ratioP2;P2;SDS_P1;SDS_P2;PMS_P1;PMS_P2;Temp;Humidity;BMP_temperature;BMP_pressure;BME280_temperature;BME280_humidity;BME280_pressure;Samples;Min_cycle;Max_cycle;Signal;HPM_P1;HPM_P2
2022/03/29 00:01:58;;;;;;;56.47;45.33;;;10.70;74.70;;;;;;5112899;28;20111;-74
2022/03/29 00:04:24;;;;;;;52.22;45.05;;;10.60;74.40;;;;;;5113199;28;20024;-74
2022/03/29 00:06:50;;;;;;;55.92;46.05;;;10.60;74.10;;;;;;5113195;28;20449;-73
2022/03/29 00:09:16;;;;;;;52.97;40.47;;;10.60;74.00;;;;;;5112904;28;20044;-73
2022/03/29 00:11:42;;;;;;;50.95;42.05;;;10.50;74.10;;;;;;5112711;28;20489;-74
2022/03/29 00:14:08;;;;;;;60.22;45.45;;;10.50;74.10;;;;;;5112930;28;20103;-74
2022/03/29 00:16:35;;;;;;;59.60;47.33;;;10.50;73.70;;;;;;5112884;28;20035;-73
2022/03/29 00:19:01;;;;;;;50.85;38.60;;;10.40;74.00;;;;;;5112712;28;20098;-73
2022/03/29 00:21:27;;;;;;;40.47;34.45;;;10.30;73.80;;;;;;5112574;28;20426;-74
2022/03/29 00:23:53;;;;;;;49.97;37.97;;;10.30;73.50;;;;;;5112758;28;20031;-73
2022/03/29 00:26:19;;;;;;;58.05;46.78;;;10.30;73.10;;;;;;5112791;28;20035;-73
2022/03/29 00:28:45;;;;;;;41.37;34.60;;;10.20;73.40;;;;;;5112682;28;20092;-73
2022/03/29 00:31:12;;;;;;;45.43;35.67;;;10.10;73.40;;;;;;5112983;28;20024;-74
2022/03/29 00:33:38;;;;;;;45.07;38.43;;;10.10;73.00;;;;;;5112672;28;20046;-73
2022/03/29 00:36:04;;;;;;;52.30;39.93;;;10.10;73.20;;;;;;5112828;28;20066;-73
2022/03/29 00:38:30;;;;;;;53.80;39.87;;;10.10;73.20;;;;;;5112879;28;20437;-74
2022/03/29 00:40:57;;;;;;;50.63;40.97;;;10.00;73.20;;;;;;5113025;28;20032;-74
2022/03/29 00:43:23;;;;;;;48.87;40.07;;;10.00;73.30;;;;;;5112693;28;20085;-74
2022/03/29 00:45:49;;;;;;;51.53;37.53;;;10.00;73.20;;;;;;5112845;28;20089;-74
2022/03/29 00:48:15;;;;;;;44.37;36.20;;;9.90;73.40;;;;;;5115921;28;20484;-74
2022/03/29 00:50:42;;;;;;;47.00;35.70;;;9.90;73.10;;;;;;5116765;28;20055;-74
2022/03/29 00:53:09;;;;;;;55.53;42.37;;;9.90;72.80;;;;;;5116623;28;20039;-74
2022/03/29 00:55:36;;;;;;;48.93;36.30;;;9.90;72.90;;;;;;5116284;28;20115;-74
2022/03/29 00:58:03;;;;;;;57.63;42.10;;;9.80;73.20;;;;;;5114668;28;20040;-74
2022/03/29 01:00:33;;;;;;;43.23;35.00;;;9.70;74.20;;;;;;5113464;28;20040;-74
2022/03/29 01:03:02;;;;;;;51.13;37.77;;;9.60;74.10;;;;;;5113309;28;20127;-74
2022/03/29 01:05:28;;;;;;;43.60;36.47;;;9.60;73.70;;;;;;5115239;28;20043;-74
2022/03/29 01:07:57;;;;;;;50.33;36.40;;;9.60;73.90;;;;;;5115784;28;20495;-74
2022/03/29 01:10:24;;;;;;;42.20;33.07;;;9.60;74.40;;;;;;5116219;28;20088;-74
2022/03/29 01:12:54;;;;;;;44.80;37.00;;;9.60;74.00;;;;;;5115913;28;20039;-74
2022/03/29 01:15:26;;;;;;;50.30;38.00;;;9.60;74.30;;;;;;5116112;28;20028;-74
2022/03/29 01:17:53;;;;;;;47.53;37.70;;;9.60;74.70;;;;;;5115629;28;20035;-73
2022/03/29 01:20:22;;;;;;;48.77;40.97;;;9.40;75.70;;;;;;5097494;28;20467;-74
2022/03/29 01:22:49;;;;;;;45.90;37.03;;;9.40;75.70;;;;;;5116012;28;20038;-73
2022/03/29 01:25:17;;;;;;;42.97;35.50;;;9.40;75.90;;;;;;5115668;28;20066;-74
2022/03/29 01:27:45;;;;;;;41.17;31.63;;;9.40;75.60;;;;;;5115249;28;20476;-73
2022/03/29 01:30:12;;;;;;;41.93;32.70;;;9.40;75.20;;;;;;5115838;28;20043;-74
2022/03/29 01:32:47;;;;;;;39.60;32.30;;;9.50;75.00;;;;;;5115340;28;20039;-74
2022/03/29 01:35:13;;;;;;;46.20;36.97;;;9.50;74.60;;;;;;5115223;28;20039;-74
2022/03/29 01:37:40;;;;;;;55.57;44.77;;;9.50;74.80;;;;;;5115863;28;20035;-73
2022/03/29 01:40:17;;;;;;;43.57;35.37;;;9.60;74.70;;;;;;5115558;28;20383;-74
2022/03/29 01:42:52;;;;;;;42.73;31.90;;;9.50;74.80;;;;;;5115343;28;20039;-74
2022/03/29 01:45:19;;;;;;;47.60;38.97;;;9.50;74.60;;;;;;5115398;28;20031;-74
2022/03/29 01:47:44;;;;;;;47.60;35.93;;;9.50;74.90;;;;;;5115372;28;20130;-74
2022/03/29 01:50:12;;;;;;;38.20;31.63;;;9.40;74.80;;;;;;5115540;28;20118;-74
2022/03/29 01:52:45;;;;;;;44.40;34.33;;;9.40;74.70;;;;;;5113145;28;20390;-74
2022/03/29 01:55:13;;;;;;;44.07;33.40;;;9.40;74.20;;;;;;5112186;28;20046;-74
2022/03/29 01:57:39;;;;;;;55.80;39.07;;;9.40;73.40;;;;;;5113750;28;20039;-74
2022/03/29 02:02:52;;;;;;;63.03;44.67;;;9.30;74.00;;;;;;5115349;28;20039;-87
2022/03/29 02:05:20;;;;;;;50.63;37.10;;;9.30;74.10;;;;;;5115376;28;20035;-74
2022/03/29 02:07:46;;;;;;;45.30;36.13;;;9.30;73.40;;;;;;5115313;28;20054;-74
2022/03/29 02:10:19;;;;;;;54.43;37.40;;;9.20;73.40;;;;;;5115475;28;20055;-78
2022/03/29 02:12:46;;;;;;;41.93;35.10;;;9.20;73.80;;;;;;5115423;28;20058;-83
2022/03/29 02:15:12;;;;;;;42.20;35.50;;;9.20;74.20;;;;;;5114966;28;20046;-74
2022/03/29 02:17:39;;;;;;;49.20;39.07;;;9.10;74.90;;;;;;5115190;28;20028;-74
2022/03/29 02:20:06;;;;;;;49.83;38.70;;;9.10;74.70;;;;;;5114972;28;20034;-73
2022/03/29 02:22:32;;;;;;;39.67;34.33;;;9.10;75.00;;;;;;5114853;28;20036;-74
2022/03/29 02:24:58;;;;;;;41.70;33.87;;;9.10;75.80;;;;;;5114875;28;20023;-73
2022/03/29 02:27:24;;;;;;;53.50;41.10;;;9.10;76.20;;;;;;5114856;28;20080;-73
2022/03/29 02:29:49;;;;;;;42.03;33.43;;;9.10;76.50;;;;;;5114950;28;20043;-74
2022/03/29 02:32:15;;;;;;;44.43;34.97;;;9.10;76.90;;;;;;5114478;28;20052;-73
2022/03/29 02:34:45;;;;;;;46.83;35.00;;;9.10;76.40;;;;;;5115055;28;20437;-73
2022/03/29 02:37:11;;;;;;;39.03;32.13;;;9.20;75.60;;;;;;5113992;28;20040;-73
2022/03/29 02:39:38;;;;;;;47.13;38.97;;;9.20;75.20;;;;;;5114429;28;20120;-74
2022/03/29 02:42:04;;;;;;;44.73;36.80;;;9.10;75.70;;;;;;5114698;28;20116;-74
2022/03/29 02:44:30;;;;;;;40.63;33.87;;;9.10;76.30;;;;;;5114515;28;20029;-74
2022/03/29 02:46:56;;;;;;;53.53;37.03;;;9.20;75.40;;;;;;5114405;28;20353;-86
2022/03/29 02:49:23;;;;;;;87.60;43.73;;;9.20;74.90;;;;;;5114571;28;20118;-73
2022/03/29 02:51:49;;;;;;;57.80;35.17;;;9.10;74.90;;;;;;5114468;28;20031;-73
2022/03/29 02:54:15;;;;;;;75.60;38.07;;;9.20;74.90;;;;;;5114302;28;20118;-74
2022/03/29 02:56:41;;;;;;;74.60;41.30;;;9.10;74.90;;;;;;5114350;28;20073;-73
2022/03/29 02:59:06;;;;;;;78.50;38.67;;;9.10;74.60;;;;;;5114495;28;20492;-74
2022/03/29 03:01:32;;;;;;;76.17;34.60;;;9.10;74.80;;;;;;5114494;28;20114;-87
2022/03/29 03:03:58;;;;;;;77.37;39.43;;;9.00;74.90;;;;;;5114752;28;20042;-74
2022/03/29 03:06:24;;;;;;;60.73;38.27;;;9.00;74.80;;;;;;5114277;28;20036;-74
2022/03/29 03:08:50;;;;;;;52.90;37.20;;;9.00;74.70;;;;;;5113914;28;20066;-74
2022/03/29 03:11:16;;;;;;;55.53;34.43;;;8.90;74.90;;;;;;5114070;28;20027;-87
2022/03/29 03:13:41;;;;;;;48.10;33.33;;;8.90;75.00;;;;;;5114141;28;20047;-74
2022/03/29 03:16:08;;;;;;;58.40;37.53;;;8.80;75.10;;;;;;5114051;28;20551;-88
2022/03/29 03:18:34;;;;;;;45.60;35.47;;;8.80;74.50;;;;;;5114384;28;20408;-74
2022/03/29 03:20:59;;;;;;;53.50;36.03;;;8.80;75.10;;;;;;5113677;28;20036;-74
2022/03/29 03:23:25;;;;;;;44.47;35.63;;;8.70;75.20;;;;;;5113897;28;20036;-78
2022/03/29 03:25:51;;;;;;;49.10;36.47;;;8.70;75.20;;;;;;5113826;28;20038;-83
2022/03/29 03:28:17;;;;;;;51.03;39.93;;;8.70;76.40;;;;;;5113724;28;20114;-89
2022/03/29 03:30:43;;;;;;;50.33;41.23;;;;;;;;;;5113717;28;20031;-88
2022/03/29 03:33:09;;;;;;;48.57;34.80;;;8.70;90.70;;;;;;5113591;28;20051;-87
2022/03/29 03:35:35;;;;;;;45.97;33.23;;;8.60;75.50;;;;;;5113806;28;20034;-79
2022/03/29 03:38:01;;;;;;;49.47;34.53;;;8.60;75.40;;;;;;5113758;28;20395;-74
2022/03/29 03:40:26;;;;;;;51.10;37.83;;;8.60;74.70;;;;;;5113900;28;20036;-74
2022/03/29 03:42:52;;;;;;;46.13;34.67;;;8.60;74.70;;;;;;5113813;28;20028;-74
2022/03/29 03:45:18;;;;;;;45.50;33.87;;;8.60;74.40;;;;;;5113867;28;20032;-74
2022/03/29 03:47:46;;;;;;;42.50;31.80;;;8.60;74.10;;;;;;5113425;28;20035;-86
2022/03/29 03:50:12;;;;;;;45.93;33.17;;;8.50;74.80;;;;;;5113359;28;20036;-73
2022/03/29 03:52:37;;;;;;;49.13;37.53;;;8.50;74.40;;;;;;5113083;28;20448;-74
2022/03/29 03:55:04;;;;;;;57.77;40.73;;;8.50;74.30;;;;;;5113881;28;20039;-83
2022/03/29 03:57:30;;;;;;;50.60;36.63;;;8.50;74.80;;;;;;5113447;28;20046;-84
2022/03/29 03:59:56;;;;;;;48.20;34.70;;;8.40;75.00;;;;;;5113337;28;20024;-75
2022/03/29 04:02:23;;;;;;;53.80;41.00;;;8.40;76.10;;;;;;5113585;28;20032;-75
2022/03/29 04:04:49;;;;;;;45.73;35.70;;;8.30;75.10;;;;;;5113274;28;20476;-75
2022/03/29 04:07:14;;;;;;;42.07;33.30;;;8.40;75.00;;;;;;5113716;28;20027;-83
2022/03/29 04:09:40;;;;;;;42.47;33.20;;;8.30;74.30;;;;;;5113375;28;20039;-75
2022/03/29 04:12:07;;;;;;;48.47;32.37;;;8.30;73.90;;;;;;5113470;28;20548;-88
2022/03/29 04:14:33;;;;;;;49.73;35.50;;;8.30;73.90;;;;;;5113626;28;20077;-88
2022/03/29 04:16:58;;;;;;;46.10;35.37;;;8.30;74.20;;;;;;5113203;28;20032;-74
2022/03/29 04:19:24;;;;;;;50.07;33.60;;;8.20;74.40;;;;;;5113603;28;20039;-76
2022/03/29 04:21:50;;;;;;;44.97;31.37;;;8.20;74.60;;;;;;5116398;28;20026;-75
2022/03/29 04:24:16;;;;;;;48.10;36.40;;;8.30;73.60;;;;;;5117468;28;20483;-75
2022/03/29 04:26:42;;;;;;;43.87;35.10;;;8.20;73.90;;;;;;5117031;28;20036;-85
2022/03/29 04:29:07;;;;;;;41.53;33.50;;;8.20;74.00;;;;;;5116750;28;20039;-74
2022/03/29 04:31:34;;;;;;;45.37;33.87;;;8.10;73.90;;;;;;5116893;28;20100;-74
2022/03/29 04:34:00;;;;;;;55.23;39.13;;;8.10;73.80;;;;;;5116677;28;20036;-75
2022/03/29 04:36:27;;;;;;;43.13;32.67;;;8.10;73.50;;;;;;5117016;28;20058;-75
2022/03/29 04:38:54;;;;;;;46.40;35.33;;;8.10;73.40;;;;;;5116805;28;20035;-75
2022/03/29 04:41:21;;;;;;;42.93;33.30;;;8.10;73.60;;;;;;5116664;28;20396;-80
2022/03/29 04:43:47;;;;;;;50.93;35.87;;;8.00;73.40;;;;;;5117082;28;20446;-75
2022/03/29 04:46:13;;;;;;;47.50;31.80;;;8.00;73.40;;;;;;5116716;28;20181;-89
2022/03/29 04:48:38;;;;;;;56.40;41.27;;;8.00;73.20;;;;;;5117116;28;20044;-89
2022/03/29 04:51:04;;;;;;;47.43;37.53;;;7.90;73.40;;;;;;5116783;28;20035;-75
2022/03/29 04:53:30;;;;;;;72.83;52.80;;;7.90;73.20;;;;;;5116638;28;20111;-75
2022/03/29 04:55:56;;;;;;;50.67;38.03;;;7.90;73.80;;;;;;5117228;28;20115;-75
2022/03/29 04:58:22;;;;;;;57.37;41.67;;;7.80;74.20;;;;;;5116807;28;20042;-89
2022/03/29 05:00:48;;;;;;;57.73;40.73;;;7.80;74.10;;;;;;5116761;28;20476;-76
2022/03/29 05:03:14;;;;;;;56.97;41.30;;;;;;;;;;5116817;28;20040;-88
2022/03/29 05:05:39;;;;;;;59.60;42.20;;;7.80;73.60;;;;;;5116696;28;20074;-88
2022/03/29 05:08:05;;;;;;;56.47;41.13;;;7.70;74.10;;;;;;5116183;28;20063;-75
2022/03/29 05:10:32;;;;;;;56.57;38.27;;;7.70;74.60;;;;;;5116043;28;20043;-75
2022/03/29 05:12:57;;;;;;;53.30;36.60;;;7.60;74.90;;;;;;5116315;28;20042;-75
2022/03/29 05:15:23;;;;;;;49.37;35.23;;;7.60;74.90;;;;;;5116507;28;20118;-89
2022/03/29 05:17:50;;;;;;;54.20;37.57;;;7.70;74.70;;;;;;5116283;28;20035;-75
2022/03/29 05:20:16;;;;;;;44.80;31.77;;;7.70;74.70;;;;;;5116249;28;20031;-88
2022/03/29 05:22:51;;;;;;;50.23;38.27;;;7.70;74.90;;;;;;5116333;28;20047;-75
2022/03/29 05:25:18;;;;;;;57.43;37.57;;;7.80;74.80;;;;;;5116065;28;20064;-75
2022/03/29 05:27:44;;;;;;;58.17;36.10;;;7.80;74.80;;;;;;5116121;28;20062;-74
2022/03/29 05:30:11;;;;;;;68.03;36.40;;;7.80;74.50;;;;;;5116075;28;20036;-75
2022/03/29 05:32:38;;;;;;;95.90;36.37;;;7.80;74.20;;;;;;5115432;28;20088;-82
2022/03/29 05:35:05;;;;;;;74.60;34.93;;;7.80;74.20;;;;;;5115886;28;20039;-75
2022/03/29 05:37:31;;;;;;;81.80;41.47;;;7.90;74.10;;;;;;5115969;28;20507;-87
2022/03/29 05:39:56;;;;;;;92.93;37.93;;;7.90;75.20;;;;;;5116093;28;20031;-75
2022/03/29 05:42:22;;;;;;;58.30;35.60;;;7.90;75.20;;;;;;5115866;28;20476;-88
2022/03/29 05:44:48;;;;;;;64.43;37.93;;;7.90;75.10;;;;;;5115432;28;20377;-75
2022/03/29 05:49:58;;;;;;;53.13;36.87;;;7.90;75.20;;;;;;5115441;28;20126;-76
2022/03/29 05:52:24;;;;;;;65.90;38.37;;;8.00;75.30;;;;;;5115046;28;20055;-73
2022/03/29 05:54:50;;;;;;;63.47;35.97;;;7.90;76.30;;;;;;5113278;28;20441;-73
2022/03/29 05:57:17;;;;;;;50.30;34.90;;;8.00;76.20;;;;;;5114632;28;20035;-73
2022/03/29 05:59:45;;;;;;;66.33;40.80;;;8.00;75.10;;;;;;5115122;28;20547;-73
2022/03/29 06:02:11;;;;;;;65.77;38.97;;;8.10;75.20;;;;;;5114375;28;20071;-73
2022/03/29 06:04:38;;;;;;;65.70;41.50;;;8.10;75.10;;;;;;5114454;28;20039;-74
2022/03/29 06:07:04;;;;;;;58.73;37.60;;;8.10;75.20;;;;;;5114297;28;20036;-73
2022/03/29 06:09:32;;;;;;;52.63;38.80;;;8.10;75.00;;;;;;5114023;28;20051;-73
2022/03/29 06:11:57;;;;;;;56.23;33.43;;;8.20;75.30;;;;;;5114706;28;20032;-73
2022/03/29 06:14:23;;;;;;;56.00;39.23;;;8.20;74.50;;;;;;5106646;28;20062;-73
2022/03/29 06:16:49;;;;;;;64.20;37.67;;;8.30;75.70;;;;;;5098819;28;20042;-73
2022/03/29 06:19:15;;;;;;;63.27;42.63;;;8.30;75.40;;;;;;5097950;28;20047;-72
2022/03/29 06:21:41;;;;;;;71.23;42.70;;;8.40;76.80;;;;;;5094088;28;20032;-73
2022/03/29 06:24:09;;;;;;;64.07;41.63;;;8.30;77.00;;;;;;5097120;28;20476;-72
2022/03/29 06:26:39;;;;;;;61.13;44.67;;;8.40;77.10;;;;;;5114337;28;20043;-74
2022/03/29 06:29:09;;;;;;;55.67;35.57;;;8.40;76.40;;;;;;5052511;28;20047;-73
2022/03/29 06:31:35;;;;;;;57.63;38.77;;;8.50;76.20;;;;;;5124605;27;20117;-72
2022/03/29 06:34:02;;;;;;;63.87;41.73;;;8.60;77.30;;;;;;5134328;27;20164;-73
2022/03/29 06:36:28;;;;;;;61.07;40.60;;;8.60;76.70;;;;;;5134752;27;20035;-74
2022/03/29 06:38:55;;;;;;;61.53;38.73;;;8.60;76.40;;;;;;5134765;27;20039;-74
2022/03/29 06:41:21;;;;;;;50.23;38.43;;;8.60;76.70;;;;;;5119442;27;20058;-74
2022/03/29 06:43:47;;;;;;;63.20;39.37;;;8.70;77.50;;;;;;5112943;28;20472;-73
2022/03/29 06:46:14;;;;;;;56.67;40.60;;;8.70;77.40;;;;;;5113926;28;20039;-73
2022/03/29 06:48:41;;;;;;;56.13;35.33;;;8.70;77.50;;;;;;5113514;28;20131;-73
2022/03/29 06:51:09;;;;;;;57.50;43.43;;;8.80;78.20;;;;;;5113953;28;20081;-74
2022/03/29 06:53:53;;;;;;;61.30;43.87;;;8.90;78.30;;;;;;5112831;28;20111;-73
2022/03/29 06:56:20;;;;;;;46.27;30.33;;;9.00;78.20;;;;;;5114583;28;20124;-73
2022/03/29 06:58:46;;;;;;;46.70;35.60;;;9.10;77.30;;;;;;5114321;28;20039;-74
2022/03/29 07:01:12;;;;;;;42.53;31.23;;;9.20;77.30;;;;;;5114148;28;20028;-73
2022/03/29 07:03:37;;;;;;;47.80;30.87;;;9.30;77.40;;;;;;5113537;28;20589;-74
2022/03/29 07:06:06;;;;;;;50.47;36.80;;;9.40;76.30;;;;;;5114179;28;20039;-74
2022/03/29 07:08:34;;;;;;;44.87;35.40;;;9.50;76.60;;;;;;5114199;28;20484;-73
2022/03/29 07:11:16;;;;;;;43.63;30.00;;;9.60;76.00;;;;;;5114347;28;20114;-73
2022/03/29 07:13:44;;;;;;;40.83;28.67;;;9.70;75.50;;;;;;5114137;28;20044;-73
2022/03/29 07:16:11;;;;;;;43.53;28.07;;;9.80;75.30;;;;;;5114067;28;20468;-73
2022/03/29 07:18:40;;;;;;;39.80;29.27;;;9.90;74.60;;;;;;5113923;28;20058;-73
2022/03/29 07:21:06;;;;;;;50.03;39.40;;;10.00;75.30;;;;;;5114067;28;20063;-73
2022/03/29 07:23:32;;;;;;;71.17;48.90;;;10.00;75.90;;;;;;5114049;28;20508;-73
2022/03/29 07:25:58;;;;;;;53.27;41.13;;;10.10;75.90;;;;;;5113745;28;20034;-73
2022/03/29 07:28:24;;;;;;;54.87;36.00;;;10.20;75.80;;;;;;5113855;28;20049;-74
2022/03/29 07:30:51;;;;;;;49.00;35.67;;;10.30;75.50;;;;;;5113974;28;20114;-73
2022/03/29 07:33:18;;;;;;;42.03;31.23;;;10.40;75.80;;;;;;5113674;28;20082;-73
2022/03/29 07:35:45;;;;;;;45.90;32.80;;;10.40;75.10;;;;;;5113878;28;20497;-73
2022/03/29 07:38:13;;;;;;;55.53;37.07;;;10.60;74.40;;;;;;5113822;28;20076;-73
2022/03/29 07:40:41;;;;;;;56.43;38.60;;;10.70;73.80;;;;;;5113532;28;20028;-73
2022/03/29 07:43:09;;;;;;;54.27;32.77;;;10.80;75.00;;;;;;5113650;28;20032;-73
2022/03/29 07:45:35;;;;;;;41.57;31.60;;;10.90;74.20;;;;;;5113707;28;20518;-73
2022/03/29 07:48:03;;;;;;;50.10;33.60;;;11.00;73.90;;;;;;5113579;28;20047;-73
2022/03/29 07:50:30;;;;;;;49.42;33.03;;;11.00;73.80;;;;;;5113550;28;20476;-73
2022/03/29 07:52:57;;;;;;;46.70;34.60;;;11.10;74.10;;;;;;5113473;28;20028;-73
2022/03/29 07:55:24;;;;;;;52.75;37.30;;;11.20;73.70;;;;;;5113173;28;20032;-73
2022/03/29 07:57:49;;;;;;;48.30;30.58;;;11.30;72.80;;;;;;5113530;28;20060;-73
2022/03/29 08:00:35;;;;;;;43.70;31.40;;;11.40;72.10;;;;;;5113485;28;20116;-74
2022/03/29 08:03:11;;;;;;;47.50;30.85;;;11.50;72.20;;;;;;5113249;28;20078;-73
2022/03/29 08:05:41;;;;;;;52.22;32.17;;;11.60;71.70;;;;;;5113396;28;20075;-73
2022/03/29 08:08:07;;;;;;;41.97;32.08;;;11.60;73.00;;;;;;5113403;28;20050;-73
2022/03/29 08:10:33;;;;;;;45.10;32.05;;;11.70;71.30;;;;;;5113510;28;20036;-73
2022/03/29 08:13:01;;;;;;;42.40;30.65;;;11.80;70.90;;;;;;5113457;28;20039;-73
2022/03/29 08:15:28;;;;;;;44.45;30.65;;;11.80;70.40;;;;;;5113249;28;20425;-73
2022/03/29 08:17:55;;;;;;;43.80;29.90;;;11.90;69.70;;;;;;5113156;28;20028;-74
2022/03/29 08:20:22;;;;;;;42.15;29.77;;;11.90;70.50;;;;;;5113360;28;20020;-74
2022/03/29 08:22:48;;;;;;;44.05;30.95;;;12.00;69.80;;;;;;5113466;28;20395;-73
2022/03/29 08:25:18;;;;;;;38.90;29.77;;;12.10;69.60;;;;;;5113329;28;20035;-73
2022/03/29 08:27:45;;;;;;;35.72;28.48;;;12.10;69.30;;;;;;5112922;28;20047;-74
2022/03/29 08:30:13;;;;;;;40.00;30.33;;;12.30;69.40;;;;;;5113081;28;20384;-73
2022/03/29 08:32:39;;;;;;;35.53;24.98;;;12.40;68.20;;;;;;5113214;28;20500;-73
2022/03/29 08:35:08;;;;;;;32.17;24.92;;;12.40;67.10;;;;;;5113114;28;20031;-73
2022/03/29 08:37:37;;;;;;;29.48;23.50;;;12.50;67.80;;;;;;5113140;28;20391;-73
2022/03/29 08:40:05;;;;;;;30.48;23.17;;;12.60;67.50;;;;;;5113220;28;20027;-73
2022/03/29 08:42:31;;;;;;;32.35;24.88;;;12.70;67.00;;;;;;5113173;28;20073;-73
2022/03/29 08:44:57;;;;;;;37.47;23.33;;;12.80;66.80;;;;;;5113208;28;20031;-73
2022/03/29 08:47:25;;;;;;;32.92;23.13;;;12.80;66.60;;;;;;5113152;28;20114;-73
2022/03/29 08:49:51;;;;;;;26.15;18.23;;;12.90;66.60;;;;;;5113032;28;20147;-73
2022/03/29 08:52:18;;;;;;;35.33;22.80;;;13.00;66.90;;;;;;5112838;28;20503;-73
2022/03/29 08:54:44;;;;;;;25.20;17.52;;;13.00;66.40;;;;;;5112939;28;20044;-73
2022/03/29 08:57:11;;;;;;;19.42;14.07;;;13.10;66.00;;;;;;5112785;28;20036;-73
2022/03/29 08:59:37;;;;;;;21.83;14.60;;;13.10;65.80;;;;;;5113060;28;20391;-74
2022/03/29 09:02:11;;;;;;;15.55;11.35;;;13.30;65.90;;;;;;5111317;28;20493;-73
2022/03/29 09:04:37;;;;;;;19.05;12.07;;;13.30;66.30;;;;;;5112471;28;20160;-73
2022/03/29 09:07:03;;;;;;;18.00;10.95;;;13.30;66.00;;;;;;5112560;28;20137;-73
2022/03/29 09:09:34;;;;;;;21.75;11.75;;;13.40;66.40;;;;;;5115801;28;20055;-73
2022/03/29 09:12:16;;;;;;;16.20;12.07;;;13.50;66.50;;;;;;5116349;28;20035;-71
2022/03/29 09:14:59;;;;;;;20.75;11.40;;;13.60;66.50;;;;;;5116540;28;20035;-73
2022/03/29 09:17:40;;;;;;;18.88;12.60;;;13.60;66.70;;;;;;5116148;28;20084;-67
2022/03/29 09:20:11;;;;;;;20.48;9.30;;;13.70;66.90;;;;;;5115977;28;20031;-68
2022/03/29 09:22:41;;;;;;;19.45;11.70;;;13.80;66.60;;;;;;5115647;28;20384;-67
2022/03/29 09:25:08;;;;;;;23.80;9.98;;;13.80;66.50;;;;;;5115961;28;20039;-67
2022/03/29 09:27:55;;;;;;;23.30;12.05;;;13.90;67.30;;;;;;5115049;28;20032;-68
2022/03/29 09:30:22;;;;;;;15.60;9.68;;;14.00;66.90;;;;;;5116321;28;20044;-67
2022/03/29 09:32:55;;;;;;;13.65;8.80;;;14.10;66.00;;;;;;5115315;28;20043;-67
2022/03/29 09:35:21;;;;;;;22.80;13.93;;;14.20;65.30;;;;;;5115820;28;20403;-67
2022/03/29 09:37:46;;;;;;;19.85;9.63;;;14.20;65.40;;;;;;5116029;28;20027;-67
2022/03/29 09:40:13;;;;;;;16.90;10.00;;;14.30;64.30;;;;;;5116134;28;20035;-68
2022/03/29 09:42:40;;;;;;;15.25;9.25;;;14.30;64.70;;;;;;5115571;28;20100;-68
2022/03/29 09:45:08;;;;;;;16.40;9.13;;;14.40;65.30;;;;;;5115156;28;20039;-67
2022/03/29 09:47:34;;;;;;;22.58;9.77;;;14.50;64.90;;;;;;5115363;28;20027;-67
2022/03/29 09:50:06;;;;;;;14.25;8.85;;;14.60;65.00;;;;;;5115258;28;20051;-67
2022/03/29 09:52:44;;;;;;;16.13;9.43;;;14.70;64.80;;;;;;5115512;28;20027;-67
2022/03/29 09:55:21;;;;;;;19.02;11.00;;;14.80;64.50;;;;;;5115247;28;20108;-69
2022/03/29 09:57:56;;;;;;;16.27;10.40;;;15.00;63.60;;;;;;5115279;28;20123;-70
2022/03/29 10:00:25;;;;;;;15.73;9.73;;;15.00;63.80;;;;;;5115193;28;20492;-70
2022/03/29 10:02:51;;;;;;;13.73;7.88;;;15.10;63.50;;;;;;5115162;28;20484;-72
2022/03/29 10:05:19;;;;;;;17.45;9.68;;;15.30;64.80;;;;;;5115195;28;20031;-68
2022/03/29 10:10:46;;;;;;;14.32;8.70;;;15.50;62.00;;;;;;5115510;28;20508;-69
2022/03/29 10:13:13;;;;;;;18.95;9.15;;;15.60;62.20;;;;;;5115437;28;20476;-69
2022/03/29 10:15:41;;;;;;;17.35;8.43;;;15.70;61.40;;;;;;5115313;28;20043;-69
2022/03/29 10:18:07;;;;;;;20.98;9.82;;;15.80;61.80;;;;;;5114950;28;20096;-69
2022/03/29 10:20:33;;;;;;;17.77;7.75;;;15.80;61.90;;;;;;5114995;28;20480;-68
2022/03/29 10:22:59;;;;;;;13.07;6.85;;;15.90;62.30;;;;;;5115082;28;20047;-69
2022/03/29 10:25:26;;;;;;;12.77;7.20;;;16.00;60.40;;;;;;5114904;28;20388;-68
2022/03/29 10:27:54;;;;;;;21.45;8.77;;;16.00;61.40;;;;;;5114882;28;20040;-69
2022/03/29 10:30:41;;;;;;;14.60;7.47;;;16.00;61.50;;;;;;5114880;28;20042;-69
2022/03/29 10:33:33;;;;;;;14.52;7.80;;;16.10;61.90;;;;;;5114464;28;20522;-69
2022/03/29 10:35:58;;;;;;;17.55;9.80;;;16.00;61.20;;;;;;5115122;28;20483;-69
2022/03/29 10:38:46;;;;;;;19.08;7.25;;;16.10;61.00;;;;;;5114872;28;20093;-68
2022/03/29 10:41:29;;;;;;;16.85;9.93;;;16.10;60.80;;;;;;5114454;28;20076;-67
2022/03/29 10:44:10;;;;;;;15.95;7.78;;;16.10;60.30;;;;;;5114270;28;20032;-66
2022/03/29 10:46:39;;;;;;;17.48;8.10;;;16.20;60.40;;;;;;5114352;28;20027;-66
2022/03/29 10:49:32;;;;;;;12.60;6.72;;;16.30;59.40;;;;;;5114585;28;20040;-67
2022/03/29 10:52:06;;;;;;;15.15;7.18;;;16.40;59.40;;;;;;5114391;28;20038;-71
2022/03/29 10:54:33;;;;;;;21.58;7.63;;;16.40;57.80;;;;;;5114271;28;20103;-67
2022/03/29 10:57:04;;;;;;;15.75;7.53;;;16.50;58.60;;;;;;5114549;28;20035;-68
2022/03/29 10:59:31;;;;;;;25.67;9.48;;;16.60;58.10;;;;;;5114099;28;20028;-67
2022/03/29 11:02:09;;;;;;;11.60;8.00;;;16.60;58.30;;;;;;5114577;28;20032;-67
2022/03/29 11:04:35;;;;;;;17.20;8.73;;;16.70;58.00;;;;;;5114261;28;20081;-68
2022/03/29 11:07:06;;;;;;;16.90;7.38;;;16.80;58.00;;;;;;5114347;28;20047;-67
2022/03/29 11:09:34;;;;;;;13.45;7.63;;;16.90;58.30;;;;;;5114359;28;20387;-65
2022/03/29 11:12:00;;;;;;;20.33;9.25;;;17.00;58.00;;;;;;5114400;28;20388;-64
2022/03/29 11:14:29;;;;;;;13.32;9.38;;;17.10;56.90;;;;;;5114320;28;20043;-66
2022/03/29 11:17:08;;;;;;;14.27;9.20;;;17.10;56.70;;;;;;5114035;28;20062;-68
2022/03/29 11:19:54;;;;;;;15.88;6.20;;;17.20;57.30;;;;;;5113834;28;20088;-65
2022/03/29 11:22:24;;;;;;;17.85;7.18;;;17.10;56.00;;;;;;5114078;28;20457;-65
2022/03/29 11:24:55;;;;;;;22.27;7.60;;;17.10;56.20;;;;;;5114062;28;20042;-65
2022/03/29 11:27:31;;;;;;;19.50;7.25;;;17.10;56.60;;;;;;5113774;28;20373;-66
2022/03/29 11:29:57;;;;;;;22.33;10.05;;;17.20;56.10;;;;;;5113180;28;20047;-65
2022/03/29 11:32:23;;;;;;;21.25;8.35;;;;;;;;;;5113448;28;20051;-65
2022/03/29 11:34:55;;;;;;;14.10;7.10;;;17.40;67.20;;;;;;5113712;28;20054;-65
2022/03/29 11:37:29;;;;;;;16.05;7.07;;;17.30;56.10;;;;;;5113843;28;20066;-68
2022/03/29 11:39:58;;;;;;;14.98;7.32;;;17.40;55.70;;;;;;5113664;28;20043;-68
2022/03/29 11:42:24;;;;;;;17.20;8.07;;;17.50;55.90;;;;;;5113414;28;20031;-68
2022/03/29 11:44:53;;;;;;;15.02;7.93;;;17.60;55.80;;;;;;5113427;28;20036;-71
2022/03/29 11:47:19;;;;;;;24.48;8.18;;;17.60;55.30;;;;;;5113596;28;20031;-65
2022/03/29 11:49:48;;;;;;;19.88;9.02;;;17.70;56.20;;;;;;5113390;28;20047;-66
2022/03/29 11:52:17;;;;;;;20.73;9.57;;;17.80;56.50;;;;;;5113649;28;20036;-66
2022/03/29 11:54:48;;;;;;;22.98;8.70;;;17.80;55.00;;;;;;5113532;28;20207;-65
2022/03/29 11:57:17;;;;;;;21.27;11.73;;;17.80;55.20;;;;;;5113301;28;20043;-66
2022/03/29 11:59:42;;;;;;;14.05;7.53;;;17.80;56.00;;;;;;5113074;28;20032;-68
2022/03/29 12:02:08;;;;;;;16.48;7.95;;;17.80;56.40;;;;;;5111523;28;20028;-67
2022/03/29 12:04:36;;;;;;;15.23;7.45;;;17.80;55.00;;;;;;5110225;28;20035;-68
2022/03/29 12:07:02;;;;;;;13.98;7.85;;;17.80;55.60;;;;;;5110489;28;20165;-67
2022/03/29 12:09:30;;;;;;;17.73;7.20;;;17.80;55.00;;;;;;5112293;28;20035;-67
2022/03/29 12:11:59;;;;;;;15.43;8.50;;;17.80;55.40;;;;;;5113208;28;20028;-67
2022/03/29 12:14:25;;;;;;;22.35;8.15;;;17.90;55.50;;;;;;5113166;28;20036;-66
2022/03/29 12:16:59;;;;;;;21.90;9.38;;;18.00;55.10;;;;;;5112884;28;20024;-66
2022/03/29 12:19:27;;;;;;;13.05;7.68;;;18.00;54.70;;;;;;5113255;28;20039;-66
2022/03/29 12:22:02;;;;;;;12.90;7.40;;;18.00;54.80;;;;;;5112675;28;20502;-66
2022/03/29 12:24:33;;;;;;;16.58;8.30;;;18.10;54.90;;;;;;5112496;28;20480;-69
2022/03/29 12:27:07;;;;;;;13.25;7.78;;;18.10;54.50;;;;;;5112915;28;20039;-66
2022/03/29 12:29:42;;;;;;;17.55;9.07;;;18.20;54.90;;;;;;5112267;28;20467;-66
2022/03/29 12:32:08;;;;;;;19.80;8.80;;;18.30;54.70;;;;;;5112390;28;20042;-66
2022/03/29 12:34:35;;;;;;;18.58;8.38;;;18.30;53.90;;;;;;5112835;28;20040;-65
2022/03/29 12:37:02;;;;;;;26.75;8.45;;;18.40;53.50;;;;;;5112872;28;20032;-65
2022/03/29 12:39:39;;;;;;;16.63;9.00;;;18.50;53.80;;;;;;5112645;28;20031;-66
2022/03/29 12:42:09;;;;;;;20.48;8.32;;;18.60;53.60;;;;;;5112687;28;20028;-70
2022/03/29 12:44:48;;;;;;;21.10;9.50;;;18.60;55.30;;;;;;5116410;28;20038;-67
2022/03/29 12:47:16;;;;;;;15.07;7.95;;;18.70;54.70;;;;;;5116274;28;20047;-66
2022/03/29 12:49:45;;;;;;;15.98;6.07;;;18.80;53.30;;;;;;5115805;28;20035;-66